Solo Tu — ZJL8310 — position and weather

sailwx.info

Track history (hours):
 
Tides and Currents Weather Stations Pressure Air Temp Water Temp Dewpoint Dewpoint Depression Visibility Wind Speed Wind Dir Waves Ship Positions

Solo Tu

Last reported at 2015-Feb-24 13:06 UTC. Time now 2015-Mar-04 02:50 UTC.
Position N 18°26' W 064°30'.

Length 28 m; draft 2 m.

Type: Pleasure craft. MMSI: 378315000.

Date/timePositionNaut miles runAvg speedWind from/ knotsBaromVisibWave heightAir tempDewpointWater temp
2015-Feb-24 13:06N 18°26' W 064°30'610.6
2015-Feb-24 12:33N 18°24' W 064°36'9 7.8
2015-Feb-24 11:28N 18°22' W 064°45'0 0.0
2015-Feb-24 10:28N 18°22' W 064°45'0 0.0
2015-Feb-24 09:28N 18°22' W 064°45'0 0.0
2015-Feb-24 08:25N 18°22' W 064°45'0 0.0
2015-Feb-24 07:22N 18°22' W 064°45'0 0.0
2015-Feb-24 06:28N 18°22' W 064°45'0 0.0
2015-Feb-24 05:22N 18°22' W 064°45'0 0.0
2015-Feb-24 04:25N 18°22' W 064°45'0 0.0
2015-Feb-24 03:28N 18°22' W 064°45'0 0.0
2015-Feb-24 02:22N 18°22' W 064°45'0 0.0
2015-Feb-24 01:28N 18°22' W 064°45'0 0.0
2015-Feb-24 00:28N 18°22' W 064°45'0 0.0
2015-Feb-23 23:31N 18°22' W 064°45'0 0.0
2015-Feb-23 22:31N 18°22' W 064°45'0 0.0
2015-Feb-23 21:28N 18°22' W 064°45'0 0.0
2015-Feb-23 20:28N 18°22' W 064°45'0 0.0
2015-Feb-23 19:31N 18°22' W 064°45'0 0.0
2015-Feb-23 18:28N 18°22' W 064°45'0 0.0
2015-Feb-23 17:04N 18°22' W 064°45'0 0.0
2015-Feb-23 16:33N 18°22' W 064°45'2 2.3
2015-Feb-23 15:33N 18°24' W 064°45'  
2015-Feb-17 20:16N 18°25' W 064°31'3 0.5
2015-Feb-17 14:21N 18°24' W 064°34'7 0.1
2015-Feb-15 15:08N 18°26' W 064°27'1 1.0
2015-Feb-15 14:32N 18°26' W 064°27'0 0.0
2015-Feb-15 13:30N 18°26' W 064°27'  
Track history (hours):
 
Tides and Currents Weather Stations Pressure Air Temp Water Temp Dewpoint Dewpoint Depression Visibility Wind Speed Wind Dir Waves Ship Positions

Solo Tu

Last reported at 2015-Feb-24 13:06 UTC. Time now 2015-Mar-04 02:50 UTC.
Position N 18°26' W 064°30'.

Length 28 m; draft 2 m.

Type: Pleasure craft. MMSI: 378315000.

Date/timePositionNaut miles runAvg speedWind from/ knotsBaromVisibWave heightAir tempDewpointWater temp
2015-Feb-24 13:06N 18°26' W 064°30'610.6
2015-Feb-24 12:33N 18°24' W 064°36'9 7.8
2015-Feb-24 11:28N 18°22' W 064°45'0 0.0
2015-Feb-24 10:28N 18°22' W 064°45'0 0.0
2015-Feb-24 09:28N 18°22' W 064°45'0 0.0
2015-Feb-24 08:25N 18°22' W 064°45'0 0.0
2015-Feb-24 07:22N 18°22' W 064°45'0 0.0
2015-Feb-24 06:28N 18°22' W 064°45'0 0.0
2015-Feb-24 05:22N 18°22' W 064°45'0 0.0
2015-Feb-24 04:25N 18°22' W 064°45'0 0.0
2015-Feb-24 03:28N 18°22' W 064°45'0 0.0
2015-Feb-24 02:22N 18°22' W 064°45'0 0.0
2015-Feb-24 01:28N 18°22' W 064°45'0 0.0
2015-Feb-24 00:28N 18°22' W 064°45'0 0.0
2015-Feb-23 23:31N 18°22' W 064°45'0 0.0
2015-Feb-23 22:31N 18°22' W 064°45'0 0.0
2015-Feb-23 21:28N 18°22' W 064°45'0 0.0
2015-Feb-23 20:28N 18°22' W 064°45'0 0.0
2015-Feb-23 19:31N 18°22' W 064°45'0 0.0
2015-Feb-23 18:28N 18°22' W 064°45'0 0.0
2015-Feb-23 17:04N 18°22' W 064°45'0 0.0
2015-Feb-23 16:33N 18°22' W 064°45'2 2.3
2015-Feb-23 15:33N 18°24' W 064°45'  
2015-Feb-17 20:16N 18°25' W 064°31'3 0.5
2015-Feb-17 14:21N 18°24' W 064°34'7 0.1
2015-Feb-15 15:08N 18°26' W 064°27'1 1.0
2015-Feb-15 14:32N 18°26' W 064°27'0 0.0
2015-Feb-15 13:30N 18°26' W 064°27'  

Dump ship's entire track history